Time;durP1;ratioP1;P1;durP2;ratioP2;P2;SDS_P1;SDS_P2;PMS_P1;PMS_P2;Temp;Humidity;BMP_temperature;BMP_pressure;BME280_temperature;BME280_humidity;BME280_pressure;Samples;Min_cycle;Max_cycle;Signal;HPM_P1;HPM_P2
2022/03/14 00:02:04;;;;;;;5.10;3.63;;;;;;;17.84;39.54;97526.75;4906971;29;20272;-84
2022/03/14 00:04:31;;;;;;;3.40;3.10;;;;;;;17.69;39.66;97510.81;4926762;28;20262;-85
2022/03/14 00:06:57;;;;;;;3.77;3.43;;;;;;;17.99;39.21;97573.19;4919854;29;20279;-81
2022/03/14 00:09:24;;;;;;;4.10;3.67;;;;;;;17.78;39.27;97546.81;4952317;29;20201;-82
2022/03/14 00:11:54;;;;;;;3.67;3.37;;;;;;;17.48;39.30;97488.69;4918033;28;20282;-84
2022/03/14 00:14:25;;;;;;;4.13;3.70;;;;;;;17.79;39.46;97546.00;4954566;28;20677;-84
2022/03/14 00:16:55;;;;;;;3.73;3.40;;;;;;;17.91;39.54;97569.41;4939967;28;20710;-84
2022/03/14 00:19:22;;;;;;;4.00;3.60;;;;;;;17.83;39.75;97559.72;4938415;28;20227;-84
2022/03/14 00:21:49;;;;;;;3.43;3.13;;;;;;;17.95;39.48;97581.44;4938087;28;20227;-84
2022/03/14 00:24:15;;;;;;;4.97;3.63;;;;;;;17.73;39.35;97544.84;4938850;28;20243;-84
2022/03/14 00:26:42;;;;;;;4.10;3.70;;;;;;;17.88;39.40;97579.44;4938229;28;20207;-84
2022/03/14 00:29:09;;;;;;;3.67;3.27;;;;;;;17.79;39.21;97555.28;4909868;28;20213;-83
2022/03/14 00:31:36;;;;;;;4.80;3.77;;;;;;;17.50;39.27;97505.72;4917597;28;20620;-84
2022/03/14 00:34:03;;;;;;;3.87;3.47;;;;;;;18.00;39.05;97590.16;4926394;28;20196;-83
2022/03/14 00:36:29;;;;;;;4.33;3.77;;;;;;;17.71;39.28;97541.41;4922975;29;20218;-84
2022/03/14 00:38:56;;;;;;;3.80;3.40;;;;;;;17.67;39.41;97535.28;4925249;28;20239;-84
2022/03/14 00:41:23;;;;;;;4.00;3.60;;;;;;;17.80;39.24;97557.91;4941217;28;20661;-84
2022/03/14 00:43:49;;;;;;;4.03;3.30;;;;;;;17.93;39.29;97589.81;4955862;28;20207;-84
2022/03/14 00:46:17;;;;;;;4.03;3.60;;;;;;;17.71;39.48;97571.88;4941687;28;20195;-84
2022/03/14 00:48:45;;;;;;;3.90;3.50;;;;;;;17.85;39.36;97588.59;4957796;28;20298;-82
2022/03/14 00:51:11;;;;;;;4.07;3.50;;;;;;;17.84;39.95;97587.75;4940900;28;20283;-84
2022/03/14 00:53:38;;;;;;;4.00;3.60;;;;;;;17.74;39.62;97580.50;4925892;28;20255;-84
2022/03/14 00:56:05;;;;;;;4.20;3.57;;;;;;;17.79;39.57;97581.59;4925004;28;20203;-84
2022/03/14 00:58:33;;;;;;;4.17;3.57;;;;;;;17.51;39.75;97537.09;4941199;28;20791;-84
2022/03/14 01:01:00;;;;;;;4.00;3.60;;;;;;;17.66;39.72;97561.53;4922588;28;20291;-84
2022/03/14 02:13:38;;;;;;;3.80;3.50;;;;;;;17.73;39.12;97628.72;4993610;23;21492;-84
2022/03/14 02:16:05;;;;;;;4.43;3.87;;;;;;;17.76;39.34;97639.91;4957344;28;20661;-83
2022/03/14 02:18:31;;;;;;;4.00;3.60;;;;;;;18.16;39.23;97701.06;4938340;29;20228;-84
2022/03/14 02:20:58;;;;;;;3.93;3.53;;;;;;;17.58;39.01;97605.16;4930231;29;20289;-84
2022/03/14 02:23:25;;;;;;;4.07;3.67;;;;;;;18.23;38.98;97720.91;4955173;28;20201;-84
2022/03/14 02:25:53;;;;;;;4.23;3.60;;;;;;;17.87;39.42;97671.78;4936374;29;20283;-85
2022/03/14 02:28:22;;;;;;;4.17;3.70;;;;;;;18.08;38.85;97702.41;4920132;29;20216;-84
2022/03/14 02:30:50;;;;;;;4.33;3.67;;;;;;;18.24;39.16;97733.69;4928219;29;20220;-84
2022/03/14 02:33:17;;;;;;;3.97;3.57;;;;;;;17.92;38.83;97670.31;4932538;29;20201;-84
2022/03/14 02:35:43;;;;;;;4.07;3.50;;;;;;;18.12;39.00;97707.69;4921043;29;20290;-84
2022/03/14 02:38:14;;;;;;;4.53;4.13;;;;;;;18.18;38.93;97728.31;4917046;29;20228;-84
2022/03/14 02:40:43;;;;;;;4.33;3.93;;;;;;;18.05;39.30;97705.69;4936252;29;20196;-84
2022/03/14 02:43:09;;;;;;;3.77;3.47;;;;;;;17.98;39.17;97698.59;4920253;29;20608;-84
2022/03/14 02:45:36;;;;;;;4.20;3.80;;;;;;;18.26;38.90;97745.63;4914788;29;20737;-84
2022/03/14 02:48:03;;;;;;;3.90;3.50;;;;;;;17.19;39.01;97566.06;4947938;29;20728;-84
2022/03/14 02:50:32;;;;;;;3.63;3.33;;;;;;;18.25;39.39;97757.44;4952461;29;20250;-84
2022/03/14 02:52:59;;;;;;;4.00;3.70;;;;;;;18.17;39.23;97746.94;4916371;29;20328;-84
2022/03/14 02:55:25;;;;;;;3.40;3.10;;;;;;;18.24;39.00;97769.28;4901149;29;20770;-84
2022/03/14 02:57:52;;;;;;;4.37;3.97;;;;;;;18.05;39.29;97748.91;4887050;29;20267;-84
2022/03/14 03:00:19;;;;;;;4.70;4.03;;;;;;;18.06;39.25;97758.28;4935346;29;20302;-84
2022/03/14 03:02:45;;;;;;;4.10;3.70;;;;;;;18.03;38.96;97759.81;4904587;29;20291;-84
2022/03/14 03:05:12;;;;;;;4.30;3.90;;;;;;;17.94;38.96;97750.06;4926213;29;20205;-84
2022/03/14 03:07:39;;;;;;;4.30;3.90;;;;;;;18.21;38.69;97807.31;4935482;29;20283;-84
2022/03/14 03:10:07;;;;;;;4.70;4.17;;;;;;;17.95;39.13;97764.53;4935216;29;20203;-84
2022/03/14 03:12:36;;;;;;;3.67;3.37;;;;;;;17.99;39.06;97779.16;4919625;29;20235;-84
2022/03/14 03:15:03;;;;;;;4.00;3.60;;;;;;;18.23;39.00;97820.09;4936089;29;20208;-83
2022/03/14 03:17:30;;;;;;;4.07;3.53;;;;;;;17.59;39.21;97711.94;4935528;29;20254;-84
2022/03/14 03:19:57;;;;;;;4.07;3.67;;;;;;;18.06;38.76;97805.75;4935151;29;20220;-83
2022/03/14 03:22:25;;;;;;;4.20;3.80;;;;;;;18.08;39.18;97812.63;4935539;29;20299;-84
2022/03/14 03:24:52;;;;;;;4.13;3.60;;;;;;;18.20;39.06;97818.28;4919862;29;20208;-84
2022/03/14 03:27:19;;;;;;;4.67;3.43;;;;;;;17.94;39.24;97790.75;4935632;29;20310;-84
2022/03/14 03:29:45;;;;;;;3.63;3.33;;;;;;;17.68;39.10;97747.97;4919148;29;20256;-84
2022/03/14 03:32:12;;;;;;;4.30;3.90;;;;;;;18.11;38.95;97824.63;4935119;29;20303;-84
2022/03/14 03:34:39;;;;;;;4.40;4.00;;;;;;;17.74;38.99;97757.56;4919635;29;20291;-84
2022/03/14 04:09:22;;;;;;;4.30;3.90;;;;;;;17.90;39.35;97913.47;3092755;23;20598;-83
2022/03/14 04:11:49;;;;;;;4.20;3.70;;;;;;;17.97;38.99;97933.31;4994733;28;20234;-84
2022/03/14 04:14:16;;;;;;;4.27;3.83;;;;;;;18.14;39.03;97965.53;4941618;28;20579;-84
2022/03/14 04:16:42;;;;;;;3.90;3.53;;;;;;;18.17;39.00;97985.16;4974020;28;20231;-84
2022/03/14 04:19:09;;;;;;;4.20;3.80;;;;;;;18.09;39.28;97973.75;4977013;28;20223;-84
2022/03/14 04:21:37;;;;;;;4.03;3.67;;;;;;;18.25;39.24;98009.31;4952645;28;20235;-84
2022/03/14 04:24:05;;;;;;;3.90;3.60;;;;;;;17.89;38.95;97999.84;4977686;28;20234;-84
2022/03/14 04:26:32;;;;;;;4.03;3.60;;;;;;;18.16;39.33;98017.38;4945791;28;20231;-84
2022/03/14 04:28:59;;;;;;;4.10;3.50;;;;;;;17.99;39.09;97987.66;4944495;28;20250;-83
2022/03/14 04:31:26;;;;;;;4.23;3.80;;;;;;;17.91;38.99;97958.41;4957943;28;20246;-83
2022/03/14 04:33:53;;;;;;;4.50;4.00;;;;;;;18.09;39.20;97989.84;4954765;28;20681;-84
2022/03/14 04:36:20;;;;;;;4.67;4.00;;;;;;;18.18;39.21;98018.28;4957949;28;20292;-84
2022/03/14 04:38:46;;;;;;;4.30;3.63;;;;;;;17.93;39.23;97974.63;4954206;28;20223;-84
2022/03/14 04:41:14;;;;;;;3.87;3.57;;;;;;;17.76;38.72;97960.19;4976939;28;20731;-84
2022/03/14 04:43:40;;;;;;;4.30;3.90;;;;;;;18.13;38.94;98036.69;4993825;28;20673;-84
2022/03/14 04:46:07;;;;;;;4.27;3.83;;;;;;;18.29;38.83;98064.63;4976784;28;20195;-84
2022/03/14 04:48:34;;;;;;;3.80;3.50;;;;;;;18.23;39.16;98049.94;4960352;28;21005;-84
2022/03/14 04:51:01;;;;;;;4.40;3.67;;;;;;;17.98;39.12;98024.06;4976893;28;20235;-84
2022/03/14 04:53:28;;;;;;;4.07;3.67;;;;;;;18.04;38.98;98032.00;4944977;28;20199;-83
2022/03/14 04:55:54;;;;;;;4.53;4.13;;;;;;;17.93;38.90;98014.44;4945036;28;20293;-83
2022/03/14 04:58:21;;;;;;;4.10;3.70;;;;;;;17.87;39.34;98022.63;4943894;28;20275;-83
2022/03/14 05:00:48;;;;;;;4.07;3.67;;;;;;;18.05;38.99;98061.72;4971317;28;20218;-83
2022/03/14 05:03:14;;;;;;;4.07;3.67;;;;;;;17.94;39.24;98059.41;4949135;28;20249;-84
2022/03/14 05:05:41;;;;;;;4.10;3.60;;;;;;;18.26;38.95;98111.97;4976282;28;20195;-84
2022/03/14 05:08:08;;;;;;;3.97;3.60;;;;;;;17.56;39.49;97990.47;4972420;28;20258;-83
2022/03/14 05:10:34;;;;;;;4.03;3.63;;;;;;;18.08;39.21;98077.16;4967794;28;20679;-83
2022/03/14 05:13:01;;;;;;;4.50;3.83;;;;;;;17.63;39.34;98002.69;4949522;28;20199;-83
2022/03/14 05:15:29;;;;;;;4.60;4.07;;;;;;;18.10;39.01;98084.84;4957551;28;20204;-83
2022/03/14 05:17:57;;;;;;;5.37;3.83;;;;;;;18.06;39.00;98081.25;4960171;28;20215;-83
2022/03/14 05:20:24;;;;;;;4.17;3.77;;;;;;;17.98;39.29;98072.38;4960605;28;20226;-83
2022/03/14 05:22:51;;;;;;;3.70;3.40;;;;;;;17.94;39.34;98087.38;4944498;28;20273;-84
2022/03/14 05:25:19;;;;;;;4.30;3.90;;;;;;;17.99;39.45;98107.19;4961482;28;20269;-84
2022/03/14 05:27:46;;;;;;;4.30;3.90;;;;;;;17.93;39.40;98096.69;4943285;28;20242;-84
2022/03/14 05:30:13;;;;;;;4.63;4.23;;;;;;;18.05;39.29;98109.16;4944378;28;20282;-83
2022/03/14 05:32:40;;;;;;;4.13;3.77;;;;;;;18.01;38.99;98107.25;4947469;28;20230;-83
2022/03/14 05:35:11;;;;;;;4.13;3.73;;;;;;;17.83;39.42;98071.56;4991623;28;20235;-83
2022/03/14 05:37:39;;;;;;;3.87;3.50;;;;;;;17.61;39.08;98052.56;4944814;28;20354;-84
2022/03/14 05:40:07;;;;;;;4.07;3.67;;;;;;;18.07;39.25;98145.72;4928271;28;20307;-82
2022/03/14 05:42:35;;;;;;;4.20;3.80;;;;;;;18.15;39.32;98157.19;4941670;28;20199;-84
2022/03/14 05:45:01;;;;;;;4.10;3.70;;;;;;;17.86;39.29;98107.31;4973187;28;20234;-83
2022/03/14 05:47:28;;;;;;;4.73;4.07;;;;;;;17.87;39.46;98119.25;4960070;28;20269;-83
2022/03/14 05:49:55;;;;;;;4.40;4.00;;;;;;;17.28;39.66;98015.16;4970438;28;20230;-83
2022/03/14 05:52:24;;;;;;;4.07;3.73;;;;;;;17.93;39.38;98141.59;4960134;28;20674;-83
2022/03/14 05:54:51;;;;;;;4.07;3.67;;;;;;;17.88;39.20;98146.44;4959282;28;20874;-83
2022/03/14 05:57:18;;;;;;;6.27;5.67;;;;;;;17.86;38.67;98148.00;4986253;28;20200;-82
2022/03/14 05:59:44;;;;;;;10.53;6.10;;;;;;;17.85;38.80;98156.44;4959093;28;20254;-83
2022/03/14 06:02:11;;;;;;;6.43;5.80;;;;;;;17.81;38.94;98144.34;4944306;28;20228;-83
2022/03/14 06:04:39;;;;;;;5.97;5.37;;;;;;;18.00;39.00;98185.22;4976034;28;20200;-83
2022/03/14 06:07:06;;;;;;;6.13;5.30;;;;;;;17.94;38.66;98184.91;4960440;28;20927;-83
2022/03/14 06:09:33;;;;;;;7.40;5.70;;;;;;;17.70;38.79;98147.97;4930070;28;20199;-84
2022/03/14 06:11:59;;;;;;;6.47;5.30;;;;;;;18.04;38.89;98210.03;4961281;28;20281;-84
2022/03/14 06:14:26;;;;;;;6.27;5.37;;;;;;;17.74;38.62;98159.19;4960623;28;20219;-85
2022/03/14 06:16:53;;;;;;;8.30;5.60;;;;;;;17.70;38.78;98152.19;4940739;28;20224;-84
2022/03/14 06:19:20;;;;;;;9.40;5.27;;;;;;;17.47;38.57;98120.44;4973724;28;20262;-85
2022/03/14 06:22:05;;;;;;;7.67;5.60;;;;;;;16.92;38.84;98039.47;4976450;28;20286;-87
2022/03/14 06:24:48;;;;;;;7.10;5.80;;;;;;;15.59;38.87;97853.44;4977161;28;20234;-89
2022/03/14 06:27:47;;;;;;;6.60;5.33;;;;;;;17.60;38.64;98188.06;4944265;28;20630;-90
2022/03/14 06:30:37;;;;;;;7.90;5.80;;;;;;;16.40;38.62;97992.50;4967125;28;20203;-90
2022/03/14 06:33:16;;;;;;;8.20;5.07;;;;;;;16.16;38.59;97954.72;4949370;28;20256;-91
2022/03/14 06:36:02;;;;;;;;;;;;;;;;;;;;;
2022/03/14 06:38:50;;;;;;;7.73;5.97;;;;;;;17.18;38.47;98150.09;4965129;28;20269;-87
2022/03/14 06:41:19;;;;;;;9.33;7.90;;;;;;;15.41;37.36;97810.97;4961154;28;20226;-87
2022/03/14 06:43:46;;;;;;;13.13;10.67;;;;;;;17.60;34.30;98195.69;4944500;28;20289;-87
2022/03/14 06:46:12;;;;;;;16.63;10.47;;;;;;;17.41;33.41;98170.03;4959708;28;20289;-86
2022/03/14 06:48:40;;;;;;;20.00;11.70;;;;;;;17.63;32.95;98201.84;4955661;28;20767;-86
2022/03/14 06:51:07;;;;;;;15.43;11.57;;;;;;;17.83;33.71;98251.22;4955775;28;20684;-86
2022/03/14 06:53:33;;;;;;;14.77;10.73;;;;;;;17.76;34.63;98238.94;4923990;28;20290;-85
2022/03/14 06:56:00;;;;;;;18.30;11.87;;;;;;;18.01;33.01;98280.22;4926809;28;20227;-86
2022/03/14 06:58:27;;;;;;;13.97;11.77;;;;;;;17.85;31.67;98275.03;4959185;28;20318;-86
2022/03/14 07:00:56;;;;;;;16.20;11.93;;;;;;;17.82;31.99;98275.75;4958979;28;20257;-88
2022/03/14 07:03:24;;;;;;;14.43;11.10;;;;;;;17.33;31.52;98192.47;4972156;28;20230;-87
2022/03/14 07:05:51;;;;;;;15.23;12.27;;;;;;;17.41;31.34;98208.16;4947628;28;20210;-85
2022/03/14 07:08:17;;;;;;;25.47;12.73;;;;;;;17.56;31.64;98248.00;4968930;28;20346;-88
2022/03/14 07:10:44;;;;;;;15.23;11.83;;;;;;;17.41;31.32;98224.25;4955405;28;20204;-86
2022/03/14 07:13:11;;;;;;;21.33;12.53;;;;;;;17.63;31.93;98272.13;4956105;28;20696;-86
2022/03/14 07:15:37;;;;;;;16.97;12.30;;;;;;;17.93;31.38;98330.66;4935051;28;20282;-86
2022/03/14 07:18:04;;;;;;;15.47;12.47;;;;;;;17.49;30.99;98257.75;4974160;28;20251;-86
2022/03/14 07:20:31;;;;;;;13.87;11.87;;;;;;;17.84;31.12;98322.50;4944114;28;20260;-87
2022/03/14 07:23:03;;;;;;;19.07;12.60;;;;;;;17.65;31.33;98298.50;4990077;28;20237;-86
2022/03/14 07:25:30;;;;;;;19.50;13.20;;;;;;;16.94;32.25;98182.59;4953419;28;20235;-86
2022/03/14 07:28:07;;;;;;;21.07;12.17;;;;;;;17.72;32.45;98321.81;4971785;28;20261;-86
2022/03/14 07:30:35;;;;;;;17.37;11.70;;;;;;;17.75;33.15;98331.25;4959149;28;20285;-86
2022/03/14 07:33:02;;;;;;;14.07;11.87;;;;;;;17.29;32.67;98256.56;4951171;28;20253;-86
2022/03/14 07:35:29;;;;;;;14.70;11.50;;;;;;;17.54;32.98;98300.44;4959589;28;20291;-86
2022/03/14 07:37:56;;;;;;;14.60;11.73;;;;;;;17.71;33.36;98329.34;4941551;28;20247;-86
2022/03/14 07:40:23;;;;;;;11.97;10.40;;;;;;;17.62;34.17;98328.84;4951786;28;20273;-85
2022/03/14 07:42:52;;;;;;;13.30;11.13;;;;;;;17.66;34.55;98336.72;4958364;28;20783;-85
2022/03/14 07:45:21;;;;;;;13.40;11.37;;;;;;;17.69;34.21;98346.16;4945231;28;20751;-85
2022/03/14 07:47:47;;;;;;;15.40;11.00;;;;;;;17.56;34.23;98328.47;4974439;28;20233;-86
2022/03/14 07:50:15;;;;;;;12.27;10.57;;;;;;;17.07;34.54;98245.97;4944011;28;20278;-86
2022/03/14 07:52:42;;;;;;;16.17;10.70;;;;;;;17.56;34.68;98334.41;4968673;28;20210;-85
2022/03/14 07:55:09;;;;;;;11.50;9.97;;;;;;;17.53;35.11;98326.63;4929831;28;20290;-86
2022/03/14 07:57:36;;;;;;;12.97;9.77;;;;;;;17.75;35.39;98362.66;4937950;28;20223;-86
2022/03/14 08:00:04;;;;;;;12.40;10.20;;;;;;;17.58;35.20;98340.47;4945634;28;20302;-85
2022/03/14 08:02:31;;;;;;;12.33;9.97;;;;;;;17.46;35.54;98319.44;4937763;28;20298;-86
2022/03/14 08:04:57;;;;;;;13.00;9.63;;;;;;;17.55;35.80;98340.31;4961698;28;20279;-85
2022/03/14 08:07:28;;;;;;;13.07;9.60;;;;;;;17.40;35.43;98321.59;4931139;28;20280;-86
2022/03/14 08:09:56;;;;;;;11.67;9.50;;;;;;;17.25;35.52;98305.47;4995002;23;20262;-79
2022/03/14 08:12:22;;;;;;;10.90;8.93;;;;;;;15.90;35.64;98072.34;4935732;28;20350;-80
2022/03/14 08:14:50;;;;;;;11.33;9.80;;;;;;;16.02;36.05;98089.97;4962712;28;20254;-81
2022/03/14 08:17:19;;;;;;;10.93;9.53;;;;;;;15.74;36.50;98048.53;4957179;28;20234;-79
2022/03/14 08:19:46;;;;;;;10.83;8.73;;;;;;;17.51;36.28;98360.38;4966713;28;20258;-81
2022/03/14 08:22:12;;;;;;;10.73;8.80;;;;;;;17.46;36.15;98357.56;4938874;28;20231;-81
2022/03/14 08:24:39;;;;;;;10.10;8.97;;;;;;;17.47;36.40;98356.75;4949897;28;20245;-79
2022/03/14 08:27:06;;;;;;;11.23;8.90;;;;;;;17.85;36.23;98428.50;4938513;28;20401;-76
2022/03/14 08:29:32;;;;;;;13.13;9.10;;;;;;;17.58;35.81;98382.78;4971483;28;20254;-79
2022/03/14 08:32:00;;;;;;;10.57;8.67;;;;;;;16.59;36.10;98210.13;4969305;28;20238;-80
2022/03/14 08:34:27;;;;;;;11.47;8.57;;;;;;;17.86;35.53;98426.84;4972074;28;20195;-79
2022/03/14 08:36:53;;;;;;;9.87;8.40;;;;;;;16.77;36.28;98240.75;4971666;28;20286;-79
2022/03/14 08:39:20;;;;;;;10.77;8.50;;;;;;;16.85;36.13;98257.34;4956216;28;20305;-79
2022/03/14 08:41:48;;;;;;;9.83;8.27;;;;;;;17.86;36.65;98437.88;4949706;28;20247;-79
2022/03/14 08:44:15;;;;;;;11.10;8.17;;;;;;;17.85;36.21;98432.69;4969680;28;20238;-79
2022/03/14 08:46:42;;;;;;;10.73;8.17;;;;;;;17.44;36.66;98373.50;4969720;28;20247;-78
2022/03/14 08:49:09;;;;;;;11.70;8.30;;;;;;;17.88;36.43;98454.09;4972287;28;20227;-78
2022/03/14 08:51:36;;;;;;;9.03;8.07;;;;;;;17.88;36.63;98443.03;4972806;28;20195;-79
2022/03/14 08:54:03;;;;;;;9.60;7.87;;;;;;;17.05;36.75;98302.56;4993128;28;20191;-77
2022/03/14 08:56:30;;;;;;;10.20;7.40;;;;;;;17.89;36.98;98455.00;4960135;28;20234;-81
2022/03/14 08:58:56;;;;;;;8.27;7.43;;;;;;;17.26;37.06;98347.84;4976165;28;20227;-79
2022/03/14 09:01:23;;;;;;;7.90;6.90;;;;;;;17.29;36.92;98354.78;4959472;28;20281;-79
2022/03/14 09:03:50;;;;;;;9.00;7.50;;;;;;;17.89;36.82;98468.56;4959602;28;20198;-82
2022/03/14 09:06:18;;;;;;;10.80;7.13;;;;;;;17.31;37.36;98364.25;4962439;28;20665;-79
2022/03/14 09:08:44;;;;;;;10.80;8.03;;;;;;;16.79;36.89;98277.28;4942962;28;20222;-78
2022/03/14 09:11:11;;;;;;;8.80;7.37;;;;;;;17.40;36.90;98387.66;4956404;28;20274;-79
2022/03/14 09:13:38;;;;;;;10.37;7.13;;;;;;;16.69;37.29;98265.69;4989353;28;20227;-78
2022/03/14 09:16:08;;;;;;;7.90;7.10;;;;;;;17.29;36.89;98367.50;4959615;28;20226;-80
2022/03/14 09:18:36;;;;;;;9.03;6.63;;;;;;;17.29;36.95;98370.03;4940795;28;20204;-79
2022/03/14 09:21:02;;;;;;;7.60;6.77;;;;;;;17.53;36.98;98412.16;4956544;28;20794;-79
2022/03/14 09:23:30;;;;;;;8.33;7.07;;;;;;;17.21;37.08;98356.88;4949305;28;20199;-79
2022/03/14 09:25:57;;;;;;;10.83;7.10;;;;;;;16.85;37.50;98295.41;4954022;28;20566;-78
2022/03/14 09:28:23;;;;;;;8.67;6.40;;;;;;;16.13;37.08;98167.53;4950189;28;20203;-79
2022/03/14 09:30:50;;;;;;;8.53;6.47;;;;;;;17.92;37.32;98480.59;4945844;28;20652;-79
2022/03/14 09:33:17;;;;;;;7.60;6.13;;;;;;;16.93;37.71;98317.06;4957895;28;20218;-77
2022/03/14 09:35:44;;;;;;;7.50;6.30;;;;;;;17.36;37.48;98382.31;4973236;28;20736;-79
2022/03/14 09:38:14;;;;;;;7.63;6.80;;;;;;;17.59;37.49;98421.00;4968865;28;20222;-79
2022/03/14 09:40:41;;;;;;;7.77;6.40;;;;;;;16.68;37.53;98258.00;4955152;28;20238;-79
2022/03/14 09:43:08;;;;;;;8.73;6.10;;;;;;;16.54;37.12;98233.44;4966578;28;20242;-78
2022/03/14 09:45:35;;;;;;;9.87;6.50;;;;;;;17.94;37.62;98481.53;4955591;28;20231;-78
2022/03/14 09:48:02;;;;;;;7.70;6.20;;;;;;;17.28;37.46;98363.19;4972262;28;20241;-78
2022/03/14 09:50:38;;;;;;;7.40;5.90;;;;;;;16.82;37.58;98291.03;4955638;28;20331;-79
2022/03/14 09:53:06;;;;;;;6.47;5.70;;;;;;;17.94;37.89;98481.53;4953778;28;20277;-76
2022/03/14 09:55:38;;;;;;;6.87;6.10;;;;;;;17.93;37.80;98479.81;4991871;28;20672;-77
2022/03/14 09:58:07;;;;;;;5.90;5.13;;;;;;;17.61;37.58;98426.19;4976293;28;20211;-79
2022/03/14 10:00:34;;;;;;;5.67;5.07;;;;;;;17.27;37.95;98375.03;4974674;28;20250;-81
2022/03/14 10:03:02;;;;;;;6.07;5.47;;;;;;;17.57;38.02;98416.63;4938880;28;20207;-79
2022/03/14 10:05:29;;;;;;;7.43;6.13;;;;;;;16.92;37.94;98308.56;4949030;28;20211;-78
2022/03/14 10:07:55;;;;;;;6.97;6.07;;;;;;;17.51;37.29;98421.34;4965086;28;20238;-79
2022/03/14 10:10:22;;;;;;;6.83;5.33;;;;;;;16.90;38.07;98305.03;4973244;28;20802;-79
2022/03/14 10:12:52;;;;;;;6.37;5.63;;;;;;;17.52;37.99;98418.00;4958691;28;20254;-79
2022/03/14 10:15:21;;;;;;;5.90;5.30;;;;;;;16.95;37.79;98320.56;4959065;28;20231;-79
2022/03/14 10:17:48;;;;;;;6.00;5.17;;;;;;;17.91;38.34;98492.44;4957947;28;20230;-79
2022/03/14 10:20:15;;;;;;;7.57;6.00;;;;;;;16.98;38.07;98333.44;4957942;28;20273;-81
2022/03/14 10:22:42;;;;;;;7.03;5.50;;;;;;;17.45;37.82;98418.44;4973747;28;20314;-78
2022/03/14 10:25:13;;;;;;;6.70;4.90;;;;;;;17.71;37.64;98462.41;4973542;28;20622;-79
2022/03/14 10:27:48;;;;;;;7.43;5.77;;;;;;;17.08;38.04;98356.06;4950798;28;20274;-79
2022/03/14 10:30:24;;;;;;;6.60;4.93;;;;;;;17.92;38.10;98498.41;4973521;28;20292;-82
2022/03/14 10:32:56;;;;;;;5.50;4.90;;;;;;;16.92;38.40;98325.44;4987518;28;20201;-79
2022/03/14 10:35:23;;;;;;;5.93;5.00;;;;;;;17.21;37.85;98402.59;4956562;28;20282;-79
2022/03/14 10:38:02;;;;;;;5.40;4.90;;;;;;;16.62;37.76;98280.47;4954898;28;20219;-79
2022/03/14 10:40:35;;;;;;;6.53;5.23;;;;;;;17.22;38.12;98383.13;4950894;28;20285;-79
2022/03/14 10:43:06;;;;;;;5.87;5.27;;;;;;;17.91;37.86;98501.72;4962400;28;20262;-80
2022/03/14 10:45:32;;;;;;;6.20;4.80;;;;;;;17.91;38.27;98496.63;4966815;28;20238;-79
2022/03/14 10:48:02;;;;;;;5.60;5.00;;;;;;;17.52;38.45;98430.72;4962214;28;20246;-79
2022/03/14 10:50:39;;;;;;;6.30;4.60;;;;;;;17.62;37.91;98448.28;4987274;28;20230;-79
2022/03/14 10:53:34;;;;;;;6.57;4.63;;;;;;;17.89;37.74;98488.91;4930467;28;20246;-77
2022/03/14 10:56:01;;;;;;;5.73;4.40;;;;;;;17.90;38.33;98500.84;4965909;28;20230;-79
2022/03/14 10:58:33;;;;;;;6.57;4.93;;;;;;;16.08;38.40;98174.00;4972715;28;20285;-80
2022/03/14 11:01:06;;;;;;;6.90;4.83;;;;;;;17.88;38.38;98491.34;4952510;28;20680;-79
2022/03/14 11:03:34;;;;;;;5.67;4.77;;;;;;;15.39;37.84;98069.19;4973069;28;20278;-79
2022/03/14 11:06:03;;;;;;;5.27;4.43;;;;;;;17.59;38.10;98445.56;4973795;28;20404;-80
2022/03/14 11:08:35;;;;;;;4.80;4.30;;;;;;;17.90;38.24;98513.56;4956945;28;20284;-81
2022/03/14 11:11:10;;;;;;;4.80;4.23;;;;;;;16.95;38.52;98341.75;4971374;28;20329;-78
2022/03/14 11:13:37;;;;;;;4.43;4.03;;;;;;;16.90;38.30;98332.97;4969267;28;20198;-79
2022/03/14 11:16:04;;;;;;;4.80;4.33;;;;;;;15.22;38.47;98030.94;4972889;28;20640;-81
2022/03/14 11:18:31;;;;;;;6.10;4.90;;;;;;;17.56;38.41;98443.69;4973218;28;20803;-79
2022/03/14 11:20:59;;;;;;;4.97;4.23;;;;;;;17.57;38.24;98439.50;4956744;28;20337;-78
2022/03/14 11:23:26;;;;;;;4.30;3.83;;;;;;;16.81;38.66;98299.41;4957428;28;20227;-79
2022/03/14 11:25:52;;;;;;;4.60;4.10;;;;;;;16.41;38.37;98237.75;4956899;28;20238;-79
2022/03/14 11:28:22;;;;;;;5.13;4.03;;;;;;;17.93;38.25;98510.31;4956110;28;20269;-81
2022/03/14 11:30:59;;;;;;;4.30;3.90;;;;;;;17.58;38.28;98448.88;4954442;28;20218;-82
2022/03/14 11:33:27;;;;;;;4.83;4.10;;;;;;;17.94;38.34;98515.50;4972595;28;20624;-80
2022/03/14 11:35:53;;;;;;;6.13;4.20;;;;;;;16.51;38.69;98261.16;4950640;28;20237;-82
2022/03/14 11:38:20;;;;;;;4.50;3.80;;;;;;;17.95;38.39;98506.22;4964107;28;20737;-80
2022/03/14 11:40:49;;;;;;;4.10;3.70;;;;;;;14.88;38.23;97967.22;4958027;28;20337;-79
2022/03/14 11:43:15;;;;;;;4.10;3.70;;;;;;;17.97;38.06;98509.72;4957452;28;20261;-80
2022/03/14 11:45:42;;;;;;;4.63;4.20;;;;;;;14.60;38.42;97918.25;4973094;28;20278;-81
2022/03/14 11:48:09;;;;;;;4.77;3.73;;;;;;;17.04;38.65;98343.94;4956838;28;20286;-80
2022/03/14 11:50:45;;;;;;;4.27;3.40;;;;;;;17.03;38.59;98338.03;4956906;28;20309;-81
2022/03/14 11:53:47;;;;;;;3.90;3.50;;;;;;;17.98;38.61;98504.72;4972828;28;20281;-80
2022/03/14 11:56:13;;;;;;;4.50;3.80;;;;;;;17.99;38.34;98509.03;4973028;28;20236;-80
2022/03/14 11:58:49;;;;;;;4.33;3.43;;;;;;;17.99;38.37;98492.88;4961006;28;20234;-78
2022/03/14 12:01:21;;;;;;;4.10;3.67;;;;;;;16.77;38.31;98286.47;4982072;28;20280;-78
2022/03/14 12:03:55;;;;;;;4.33;3.73;;;;;;;16.88;38.72;98329.50;4971028;28;20238;-81
2022/03/14 12:06:47;;;;;;;5.03;3.60;;;;;;;17.97;38.31;98490.25;4959743;28;20203;-81
2022/03/14 12:09:25;;;;;;;4.13;3.70;;;;;;;17.96;38.45;98497.78;4989110;28;20310;-84
2022/03/14 12:11:53;;;;;;;4.70;4.10;;;;;;;17.10;38.82;98346.84;4988499;28;20198;-79
2022/03/14 12:14:40;;;;;;;6.37;4.10;;;;;;;17.96;38.97;98491.03;4972919;28;20241;-81
2022/03/14 12:17:30;;;;;;;7.37;3.93;;;;;;;17.65;38.77;98438.31;4971011;28;20286;-75
2022/03/14 12:20:04;;;;;;;4.77;3.67;;;;;;;17.95;38.64;98484.16;4972044;28;20223;-79
2022/03/14 12:22:32;;;;;;;7.40;4.03;;;;;;;17.95;38.74;98485.88;4971698;28;20265;-79
2022/03/14 12:24:59;;;;;;;5.10;3.57;;;;;;;17.14;38.95;98344.59;4988849;28;20282;-81
2022/03/14 12:27:29;;;;;;;4.70;3.73;;;;;;;17.33;38.97;98407.53;4959437;28;20286;-80
2022/03/14 12:29:57;;;;;;;5.40;3.27;;;;;;;16.26;38.68;98185.25;4975902;28;20818;-79
2022/03/14 12:32:41;;;;;;;4.73;3.53;;;;;;;16.98;38.83;98314.00;4992439;28;20570;-80
2022/03/14 12:35:08;;;;;;;5.53;3.50;;;;;;;17.94;38.77;98466.28;4953765;28;20207;-75
2022/03/14 12:37:35;;;;;;;3.60;3.30;;;;;;;17.96;38.97;98472.34;4981962;28;20227;-81
2022/03/14 12:40:03;;;;;;;6.50;3.60;;;;;;;17.01;38.99;98303.13;4985728;28;20217;-80
2022/03/14 12:42:38;;;;;;;4.83;3.40;;;;;;;17.76;38.51;98437.25;4945497;28;20251;-80
2022/03/14 12:45:29;;;;;;;7.90;3.63;;;;;;;17.01;38.78;98311.66;4975606;28;20225;-77
2022/03/14 12:47:58;;;;;;;3.67;3.17;;;;;;;17.94;38.88;98469.72;4948891;28;20257;-77
2022/03/14 12:50:43;;;;;;;7.53;3.73;;;;;;;17.94;38.67;98474.81;4976821;28;20223;-79
2022/03/14 12:53:10;;;;;;;4.60;3.60;;;;;;;17.96;38.62;98462.16;4991505;28;20269;-78
2022/03/14 12:55:45;;;;;;;4.23;3.30;;;;;;;17.58;39.24;98398.03;4984486;28;20587;-79
2022/03/14 12:58:37;;;;;;;4.37;3.40;;;;;;;17.25;39.27;98333.41;4960835;28;20214;-81
2022/03/14 13:01:04;;;;;;;4.73;3.33;;;;;;;17.94;39.15;98510.41;4993310;28;20244;-78
2022/03/14 13:03:33;;;;;;;4.53;3.53;;;;;;;17.94;39.24;98461.19;4979931;28;20198;-79
2022/03/14 13:06:00;;;;;;;5.70;3.00;;;;;;;17.17;38.92;98332.06;4995300;28;20281;-78
2022/03/14 13:08:27;;;;;;;7.93;3.37;;;;;;;13.39;38.95;97661.19;4976802;28;20282;-81
2022/03/14 13:10:56;;;;;;;4.17;3.40;;;;;;;17.95;38.91;98447.72;4954102;28;20650;-80
2022/03/14 13:13:31;;;;;;;4.80;3.57;;;;;;;17.94;39.28;98454.47;4992740;28;20214;-79
2022/03/14 13:16:11;;;;;;;5.10;3.07;;;;;;;17.94;38.95;98454.47;4972099;28;20652;-78
2022/03/14 13:18:45;;;;;;;4.73;3.57;;;;;;;17.47;39.36;98376.22;4975339;28;20222;-79
2022/03/14 13:21:13;;;;;;;5.23;3.60;;;;;;;17.95;38.77;98460.44;4992644;28;20321;-81
2022/03/14 13:23:39;;;;;;;8.33;3.43;;;;;;;15.92;39.07;98149.38;4992465;28;20229;-79